AERODROME FORECAST
Output Produced by Aerodrome Forecast
found at http://aviationweather.gov/adds/metars/
 

Data at: 0911 UTC 20 Oct 2019

TAF for:WIII (Jakarta Intl, --, ID) issued at 0500 UTC 20 Oct 2019
Text:TAF WIII 200500Z 2006/2112 05010KT 9999 SCT020
Forecast period:0600 to 1300 UTC 20 October 2019
Forecast type:FROM: standard forecast or significant change
Winds:from the NE (50 degrees) at 12 MPH (10 knots; 5.1 m/s)
Visibility:6 or more sm (10+ km)
Ceiling:at least 12,000 feet AGL
Clouds: scattered clouds at 2000 feet AGL
Text:BECMG 2013/2015 22004KT
Forecast period:1300 UTC 20 October 2019 to 1200 UTC 21 October 2019
Forecast type:BECOMING: Conditions expected to become as follows by 1500 UTC 20 October 2019
Winds:from the SW (220 degrees) at 5 MPH (4 knots; 2.1 m/s)
Visibility:6 or more sm (10+ km)
Ceiling:at least 12,000 feet AGL
Clouds: scattered clouds at 2000 feet AGL